createdAt,value
2022-09-07T03:16:31.608Z,2.70
2022-09-07T03:18:59.734Z,2.70
2022-09-07T03:21:27.886Z,2.60
2022-09-07T03:23:56.033Z,2.60
2022-09-07T03:26:25.355Z,2.50
2022-09-07T03:28:53.522Z,2.50
2022-09-07T03:31:21.732Z,2.50
2022-09-07T03:33:51.255Z,2.40
2022-09-07T03:36:19.388Z,2.40
2022-09-07T03:38:47.531Z,2.30
2022-09-07T03:41:15.639Z,2.30
2022-09-07T03:43:43.837Z,2.30
2022-09-07T03:46:12.085Z,2.30
2022-09-07T03:48:40.238Z,2.30
2022-09-07T03:51:11.490Z,2.30
2022-09-07T03:53:41.857Z,2.30
2022-09-07T03:56:12.194Z,2.20
2022-09-07T03:58:40.517Z,2.20
2022-09-07T04:01:10.628Z,2.20
2022-09-07T04:03:39.907Z,2.10
2022-09-07T04:06:09.921Z,2.10
2022-09-07T04:08:39.276Z,2.10
2022-09-07T04:11:09.883Z,2.00
2022-09-07T04:13:38.429Z,2.10
2022-09-07T04:16:15.395Z,2.10
2022-09-07T04:18:43.613Z,2.10
2022-09-07T04:21:13.756Z,2.00
2022-09-07T04:23:43.076Z,2.10
2022-09-07T04:26:15.729Z,2.00
2022-09-07T04:28:43.885Z,2.10
2022-09-07T04:31:12.223Z,2.10
2022-09-07T04:33:40.413Z,2.10
2022-09-07T04:36:09.264Z,2.30
2022-09-07T04:38:40.091Z,2.20
2022-09-07T04:41:10.799Z,2.30
2022-09-07T04:43:40.325Z,2.30
2022-09-07T04:46:12.794Z,2.40
2022-09-07T04:48:41.053Z,2.40
2022-09-07T04:51:11.518Z,2.50
2022-09-07T04:53:41.021Z,2.60
2022-09-07T04:56:10.364Z,2.60
2022-09-07T04:58:39.961Z,2.60
2022-09-07T05:01:08.704Z,2.60
2022-09-07T05:03:38.834Z,2.60
2022-09-07T05:06:08.472Z,2.70
2022-09-07T05:08:38.040Z,2.80
2022-09-07T05:11:08.450Z,2.80
2022-09-07T05:13:36.743Z,2.90
2022-09-07T05:16:09.937Z,3.00
2022-09-07T05:18:38.352Z,3.10
2022-09-07T05:21:12.363Z,3.20
2022-09-07T05:23:40.851Z,3.30
2022-09-07T05:26:11.432Z,3.30
2022-09-07T05:28:40.067Z,3.40
2022-09-07T05:31:17.499Z,3.50
2022-09-07T05:36:35.647Z,3.70
2022-09-07T05:39:03.702Z,3.80
2022-09-07T05:41:33.287Z,4.00
2022-09-07T05:46:49.628Z,4.90
2022-09-07T05:49:17.755Z,5.40
2022-09-07T05:51:45.936Z,5.60
2022-09-07T05:54:14.215Z,5.90
2022-09-07T05:56:43.758Z,6.20
2022-09-07T05:59:12.008Z,6.40
2022-09-07T06:01:40.257Z,6.80
2022-09-07T06:04:08.459Z,7.10
2022-09-07T06:06:39.482Z,7.50
2022-09-07T06:09:09.248Z,8.20
2022-09-07T06:11:38.005Z,9.10
2022-09-07T06:14:07.589Z,10.20
2022-09-07T06:16:36.305Z,11.20
2022-09-07T06:19:07.248Z,12.30
2022-09-07T06:21:37.410Z,13.70
2022-09-07T06:24:06.191Z,15.00
2022-09-07T06:26:34.546Z,16.10
2022-09-07T06:29:03.765Z,16.90
2022-09-07T06:31:33.286Z,17.20
2022-09-07T06:34:01.584Z,17.80
2022-09-07T06:36:29.930Z,18.50
2022-09-07T06:39:01.546Z,18.60
2022-09-07T06:44:22.072Z,18.40
2022-09-07T06:47:06.709Z,18.80
2022-09-07T06:49:34.933Z,20.00
2022-09-07T06:52:03.453Z,20.10
2022-09-07T06:57:19.662Z,20.40
2022-09-07T06:59:47.786Z,20.90
2022-09-07T07:02:17.247Z,21.00
2022-09-07T07:04:49.627Z,21.00
2022-09-07T07:07:17.808Z,21.40
2022-09-07T07:12:59.030Z,21.70
2022-09-07T07:15:29.203Z,21.70
2022-09-07T07:18:09.247Z,22.40
2022-09-07T07:20:46.988Z,22.40
2022-09-07T07:23:15.083Z,21.70
2022-09-07T07:25:43.180Z,22.00
2022-09-07T07:31:02.377Z,21.10
2022-09-07T07:33:35.053Z,21.40
2022-09-07T07:36:13.990Z,21.70
2022-09-07T07:44:18.428Z,22.70
2022-09-07T07:46:49.022Z,22.60
2022-09-07T07:49:18.601Z,22.60
2022-09-07T07:54:36.908Z,23.20
2022-09-07T07:57:05.717Z,23.00
2022-09-07T07:59:33.867Z,22.70
2022-09-07T08:02:04.786Z,22.90
2022-09-07T08:04:35.348Z,22.80
2022-09-07T08:07:09.634Z,22.70
2022-09-07T08:09:40.100Z,23.20
2022-09-07T08:12:08.713Z,23.00
2022-09-07T08:14:41.089Z,22.60
2022-09-07T08:17:10.280Z,22.80
2022-09-07T08:19:39.974Z,22.80
2022-09-07T08:22:08.995Z,21.80
2022-09-07T08:24:37.155Z,21.60
2022-09-07T08:27:06.086Z,21.40
2022-09-07T08:29:35.438Z,21.20
2022-09-07T08:32:06.644Z,21.60
2022-09-07T08:34:38.114Z,21.50
2022-09-07T08:37:07.811Z,21.30
2022-09-07T08:39:36.756Z,20.90
2022-09-07T08:42:22.264Z,20.50
2022-09-07T08:44:54.364Z,20.30
2022-09-07T08:47:31.713Z,20.20
2022-09-07T08:50:05.151Z,20.00
2022-09-07T08:52:47.601Z,19.80
2022-09-07T08:55:20.391Z,19.30
2022-09-07T08:57:55.129Z,19.10
2022-09-07T09:00:23.586Z,18.50
2022-09-07T09:05:50.095Z,18.80
2022-09-07T09:08:33.053Z,18.70
2022-09-07T09:11:08.618Z,19.30
2022-09-07T09:13:48.573Z,19.30
2022-09-07T09:16:23.510Z,19.80
2022-09-07T09:19:03.071Z,20.10
2022-09-07T09:21:31.239Z,20.00
2022-09-07T09:24:12.651Z,19.80
2022-09-07T09:26:43.508Z,19.70
2022-09-07T09:29:15.994Z,19.20
2022-09-07T09:31:44.240Z,19.20
2022-09-07T09:34:15.085Z,19.20
2022-09-07T09:36:46.755Z,19.30
2022-09-07T09:39:50.997Z,19.30
2022-09-07T09:42:25.435Z,19.20
2022-09-07T09:44:55.206Z,19.10
2022-09-07T09:47:31.260Z,19.30
2022-09-07T09:50:02.517Z,19.30
2022-09-07T09:52:43.935Z,19.10
2022-09-07T09:55:40.656Z,19.10
2022-09-07T10:01:25.325Z,19.20
2022-09-07T10:06:28.147Z,18.90
2022-09-07T10:08:58.809Z,19.00
2022-09-07T10:14:36.229Z,19.10
2022-09-07T10:17:14.215Z,19.30
2022-09-07T10:19:44.526Z,19.30
2022-09-07T10:22:25.946Z,19.30
2022-09-07T10:24:54.123Z,19.30
2022-09-07T10:27:31.509Z,19.20
2022-09-07T10:30:00.452Z,19.40
2022-09-07T10:32:41.447Z,19.40
2022-09-07T10:35:17.552Z,19.40
2022-09-07T10:37:54.133Z,19.50
2022-09-07T10:40:31.741Z,19.70
2022-09-07T10:43:20.702Z,19.80
2022-09-07T10:46:04.606Z,19.60
2022-09-07T10:48:39.608Z,20.10
2022-09-07T10:51:14.693Z,20.40
2022-09-07T10:54:29.999Z,20.70
2022-09-07T10:56:46.523Z,21.10
2022-09-07T11:02:30.372Z,21.50
2022-09-07T11:05:06.386Z,21.40
2022-09-07T11:07:54.523Z,21.50
2022-09-07T11:10:30.858Z,22.00
2022-09-07T11:13:02.197Z,21.80
2022-09-07T11:15:34.242Z,21.60
2022-09-07T11:18:08.257Z,21.50
2022-09-07T11:20:40.608Z,21.50
2022-09-07T11:23:17.106Z,21.60
2022-09-07T11:25:58.845Z,21.30
2022-09-07T11:28:30.943Z,21.30
2022-09-07T11:31:05.355Z,20.90
2022-09-07T11:33:36.363Z,21.00
2022-09-07T11:36:12.430Z,21.00
2022-09-07T11:38:46.854Z,21.10
2022-09-07T11:41:26.708Z,20.90
2022-09-07T11:44:02.985Z,21.00
2022-09-07T11:46:39.417Z,21.10
2022-09-07T11:49:13.369Z,20.90
2022-09-07T11:51:46.049Z,20.70
2022-09-07T11:54:35.208Z,20.80
2022-09-07T11:57:23.329Z,20.90
2022-09-07T12:00:01.788Z,21.00
2022-09-07T12:03:12.716Z,21.10
2022-09-07T12:06:12.431Z,21.20
2022-09-07T12:09:05.245Z,20.80
2022-09-07T12:11:57.883Z,20.60
2022-09-07T12:14:38.994Z,20.70
2022-09-07T12:17:27.738Z,20.70
2022-09-07T12:20:14.376Z,20.50
2022-09-07T12:23:05.458Z,20.60
2022-09-07T12:25:34.666Z,20.60
2022-09-07T12:28:03.548Z,20.50
2022-09-07T12:30:54.034Z,20.40
2022-09-07T12:33:28.696Z,20.40
2022-09-07T12:36:00.915Z,20.40
2022-09-07T12:39:06.132Z,20.40
2022-09-07T12:41:49.609Z,20.50
2022-09-07T12:44:20.171Z,20.30
2022-09-07T12:46:51.707Z,20.20
2022-09-07T12:49:40.933Z,20.10
2022-09-07T12:52:38.851Z,20.20
2022-09-07T12:55:27.901Z,20.20
2022-09-07T12:58:06.425Z,20.20
2022-09-07T13:00:48.887Z,20.30
2022-09-07T13:09:56.319Z,20.30
2022-09-07T13:15:48.906Z,20.50
2022-09-07T13:18:44.641Z,20.30
2022-09-07T13:21:34.807Z,20.20
2022-09-07T13:24:46.448Z,20.20
2022-09-07T13:27:51.875Z,20.20
2022-09-07T13:30:46.533Z,20.30
2022-09-07T13:33:44.825Z,20.30
2022-09-07T13:36:26.333Z,20.30
2022-09-07T13:38:55.550Z,20.30
2022-09-07T13:41:27.124Z,20.30
2022-09-07T13:44:00.878Z,20.50
2022-09-07T13:46:42.767Z,20.30
2022-09-07T13:49:23.397Z,20.40
2022-09-07T13:51:56.890Z,20.40
2022-09-07T13:54:32.778Z,20.40
2022-09-07T13:57:12.092Z,20.30
2022-09-07T13:59:43.595Z,20.40
2022-09-07T14:02:24.906Z,20.40
2022-09-07T14:04:55.403Z,20.30
2022-09-07T14:07:24.906Z,20.30
2022-09-07T14:10:06.783Z,20.30
2022-09-07T14:12:44.195Z,20.30
2022-09-07T14:15:21.381Z,20.30
2022-09-07T14:17:50.796Z,20.30
2022-09-07T14:20:19.927Z,20.30
2022-09-07T14:22:53.052Z,20.40
2022-09-07T14:25:22.880Z,20.30
2022-09-07T14:27:51.258Z,20.30
2022-09-07T14:30:28.064Z,20.20
2022-09-07T14:32:58.221Z,20.20
2022-09-07T14:35:29.001Z,20.10
2022-09-07T14:38:03.586Z,20.20
2022-09-07T14:40:31.999Z,20.20
2022-09-07T14:43:00.015Z,20.20
2022-09-07T14:45:35.275Z,20.20
2022-09-07T14:48:14.720Z,20.10
2022-09-07T14:51:01.018Z,20.00
2022-09-07T14:53:34.709Z,20.00
2022-09-07T14:56:08.884Z,20.00
2022-09-07T14:58:36.970Z,20.00
2022-09-07T15:04:18.641Z,19.80
2022-09-07T15:07:03.263Z,20.00
2022-09-07T15:09:37.730Z,20.00
2022-09-07T15:12:18.941Z,19.90
2022-09-07T15:14:48.223Z,19.80
2022-09-07T15:20:35.779Z,19.90
2022-09-07T15:23:04.925Z,19.70
2022-09-07T15:25:33.537Z,19.70
2022-09-07T15:28:01.677Z,19.70
2022-09-07T15:30:30.472Z,19.70
2022-09-07T15:33:00.050Z,19.60
2022-09-07T15:35:28.165Z,19.40
2022-09-07T15:38:05.312Z,19.50
2022-09-07T15:40:51.544Z,19.50
2022-09-07T15:43:29.680Z,19.40
2022-09-07T15:45:57.806Z,19.20
2022-09-07T15:48:27.437Z,19.10
2022-09-07T15:51:03.735Z,19.10
2022-09-07T15:56:23.044Z,18.80
2022-09-07T15:58:53.335Z,18.80
2022-09-07T16:04:14.884Z,18.70
2022-09-07T16:06:43.286Z,18.50
2022-09-07T16:09:11.405Z,18.50
2022-09-07T16:11:39.449Z,18.20
2022-09-07T16:14:07.509Z,18.10
2022-09-07T16:19:25.146Z,17.70
2022-09-07T16:21:57.458Z,17.50
2022-09-07T16:24:27.928Z,17.30
2022-09-07T16:26:57.109Z,17.00
2022-09-07T16:29:25.247Z,16.90
2022-09-07T16:34:43.151Z,16.50
2022-09-07T16:37:11.348Z,16.30
2022-09-07T16:39:39.514Z,16.20
2022-09-07T16:42:08.950Z,16.00
2022-09-07T16:44:37.172Z,15.80
2022-09-07T16:47:05.368Z,15.70
2022-09-07T16:49:33.787Z,15.50
2022-09-07T16:52:05.301Z,15.40
2022-09-07T16:54:33.347Z,15.20
2022-09-07T16:57:01.539Z,15.00
2022-09-07T16:59:30.781Z,14.90
2022-09-07T17:01:58.874Z,14.70
2022-09-07T17:04:27.035Z,14.50
2022-09-07T17:06:55.207Z,14.40
2022-09-07T17:09:26.805Z,14.30
2022-09-07T17:11:54.936Z,14.10
2022-09-07T17:14:23.266Z,14.00
2022-09-07T17:16:51.536Z,13.90
2022-09-07T17:19:36.206Z,13.70
2022-09-07T17:22:04.436Z,13.60
2022-09-07T17:24:34.050Z,13.50
2022-09-07T17:27:03.114Z,13.30
2022-09-07T17:29:37.063Z,13.20
2022-09-07T17:34:55.381Z,13.00
2022-09-07T17:37:23.547Z,12.90
2022-09-07T17:39:53.576Z,12.70
2022-09-07T17:42:21.781Z,12.60
2022-09-07T17:44:52.750Z,12.60
2022-09-07T17:47:21.198Z,12.50
2022-09-07T17:49:49.252Z,12.40
2022-09-07T17:52:17.294Z,12.30
2022-09-07T17:54:45.409Z,12.20
2022-09-07T17:57:14.839Z,12.10
2022-09-07T18:02:37.829Z,11.90
2022-09-07T18:05:07.287Z,11.90
2022-09-07T18:07:36.128Z,11.80
2022-09-07T18:10:04.332Z,11.80
2022-09-07T18:12:33.851Z,11.60
2022-09-07T18:15:01.943Z,11.50
2022-09-07T18:17:30.234Z,11.50
2022-09-07T18:19:58.484Z,11.40
2022-09-07T18:22:26.646Z,11.30
2022-09-07T18:24:54.698Z,11.20
2022-09-07T18:27:22.831Z,11.20
2022-09-07T18:29:52.505Z,11.10
2022-09-07T18:32:20.596Z,11.10
2022-09-07T18:34:50.775Z,11.00
2022-09-07T18:37:19.526Z,10.90
2022-09-07T18:39:48.701Z,10.90
2022-09-07T18:42:16.968Z,10.80
2022-09-07T18:47:35.814Z,10.70
2022-09-07T18:50:03.970Z,10.60
2022-09-07T18:55:20.276Z,10.50
2022-09-07T18:57:48.383Z,10.40
2022-09-07T19:00:17.944Z,10.30
2022-09-07T19:02:50.962Z,10.40
2022-09-07T19:08:08.584Z,10.30
2022-09-07T19:10:37.913Z,10.30
2022-09-07T19:13:05.996Z,10.20
2022-09-07T19:15:38.075Z,10.10
2022-09-07T19:18:08.863Z,10.10
2022-09-07T19:20:37.527Z,10.00
2022-09-07T19:23:05.880Z,10.10
2022-09-07T19:25:34.093Z,10.00
2022-09-07T19:28:02.186Z,10.00
2022-09-07T19:30:30.536Z,10.00
2022-09-07T19:33:03.345Z,10.00
2022-09-07T19:35:37.226Z,10.00
2022-09-07T19:38:05.781Z,10.10
2022-09-07T19:40:33.915Z,10.10
2022-09-07T19:43:02.096Z,10.10
2022-09-07T19:45:30.499Z,10.20
2022-09-07T19:47:58.707Z,10.20
2022-09-07T19:50:26.808Z,10.20
2022-09-07T19:52:56.192Z,10.20
2022-09-07T19:55:24.231Z,10.20
2022-09-07T19:57:52.537Z,10.20
2022-09-07T20:00:20.766Z,10.20
2022-09-07T20:02:50.030Z,10.20
2022-09-07T20:05:18.909Z,10.20
2022-09-07T20:07:47.061Z,10.20
2022-09-07T20:10:17.143Z,10.20
2022-09-07T20:12:45.201Z,10.20
2022-09-07T20:15:13.320Z,10.20
2022-09-07T20:17:41.375Z,10.20
2022-09-07T20:20:10.442Z,10.20
2022-09-07T20:22:38.516Z,10.20
2022-09-07T20:25:11.330Z,10.20
2022-09-07T20:27:42.607Z,10.20
2022-09-07T20:30:11.859Z,10.10
2022-09-07T20:32:40.063Z,10.10
2022-09-07T20:35:08.595Z,10.10
2022-09-07T20:37:36.907Z,10.10
2022-09-07T20:40:06.433Z,10.00
2022-09-07T20:42:34.830Z,10.00
2022-09-07T20:45:04.665Z,9.90
2022-09-07T20:47:32.863Z,9.90
2022-09-07T20:50:00.958Z,9.90
2022-09-07T20:52:29.032Z,9.90
2022-09-07T20:54:57.309Z,9.80
2022-09-07T20:57:25.417Z,9.80
2022-09-07T20:59:53.813Z,9.80
2022-09-07T21:02:23.307Z,9.80
2022-09-07T21:04:51.421Z,9.80
2022-09-07T21:07:19.523Z,9.70
2022-09-07T21:09:47.717Z,9.70
2022-09-07T21:12:15.727Z,9.70
2022-09-07T21:14:45.581Z,9.60
2022-09-07T21:17:13.702Z,9.60
2022-09-07T21:19:43.164Z,9.50
2022-09-07T21:22:11.286Z,9.50
2022-09-07T21:24:39.553Z,9.40
2022-09-07T21:27:07.970Z,9.40
2022-09-07T21:29:36.107Z,9.30
2022-09-07T21:32:04.732Z,9.30
2022-09-07T21:34:32.833Z,9.20
2022-09-07T21:37:02.217Z,9.20
2022-09-07T21:39:30.366Z,9.10
2022-09-07T21:41:58.436Z,9.10
2022-09-07T21:44:26.612Z,9.00
2022-09-07T21:46:54.768Z,9.00
2022-09-07T21:49:22.886Z,8.90
2022-09-07T21:51:50.928Z,8.90
2022-09-07T21:54:20.367Z,8.80
2022-09-07T21:56:49.140Z,8.80
2022-09-07T21:59:17.188Z,8.70
2022-09-07T22:01:45.365Z,8.70
2022-09-07T22:04:13.600Z,8.60
2022-09-07T22:06:41.776Z,8.60
2022-09-07T22:09:10.252Z,8.50
